sensor_id;sensor_type;location;lat;lon;timestamp;P1;durP1;ratioP1;P2;durP2;ratioP2
69754;SDS011;57023;52.218;5.158;2023-01-19T00:01:43;7.43;;;2.25;;
69754;SDS011;57023;52.218;5.158;2023-01-19T00:04:08;3.05;;;1.75;;
69754;SDS011;57023;52.218;5.158;2023-01-19T00:06:33;5.28;;;2.30;;
69754;SDS011;57023;52.218;5.158;2023-01-19T00:08:59;4.80;;;2.60;;
69754;SDS011;57023;52.218;5.158;2023-01-19T00:11:24;4.63;;;2.00;;
69754;SDS011;57023;52.218;5.158;2023-01-19T00:13:49;4.07;;;2.30;;
69754;SDS011;57023;52.218;5.158;2023-01-19T00:16:15;9.82;;;2.10;;
69754;SDS011;57023;52.218;5.158;2023-01-19T00:18:43;3.17;;;2.00;;
69754;SDS011;57023;52.218;5.158;2023-01-19T00:21:09;2.72;;;1.65;;
69754;SDS011;57023;52.218;5.158;2023-01-19T00:23:34;2.13;;;1.80;;
69754;SDS011;57023;52.218;5.158;2023-01-19T00:26:00;3.60;;;1.90;;
69754;SDS011;57023;52.218;5.158;2023-01-19T00:28:25;4.07;;;2.10;;
69754;SDS011;57023;52.218;5.158;2023-01-19T00:30:50;4.97;;;1.90;;
69754;SDS011;57023;52.218;5.158;2023-01-19T00:33:16;6.15;;;2.10;;
69754;SDS011;57023;52.218;5.158;2023-01-19T00:35:41;8.00;;;3.03;;
69754;SDS011;57023;52.218;5.158;2023-01-19T00:38:07;5.78;;;2.00;;
69754;SDS011;57023;52.218;5.158;2023-01-19T00:40:33;6.20;;;2.47;;
69754;SDS011;57023;52.218;5.158;2023-01-19T00:42:58;6.05;;;2.20;;
69754;SDS011;57023;52.218;5.158;2023-01-19T00:45:24;7.70;;;2.22;;
69754;SDS011;57023;52.218;5.158;2023-01-19T00:47:50;5.50;;;2.33;;
69754;SDS011;57023;52.218;5.158;2023-01-19T00:50:21;8.57;;;3.00;;
69754;SDS011;57023;52.218;5.158;2023-01-19T00:52:47;6.18;;;2.33;;
69754;SDS011;57023;52.218;5.158;2023-01-19T00:55:13;8.25;;;2.78;;
69754;SDS011;57023;52.218;5.158;2023-01-19T00:57:39;9.65;;;2.47;;
69754;SDS011;57023;52.218;5.158;2023-01-19T01:00:05;6.43;;;2.40;;
69754;SDS011;57023;52.218;5.158;2023-01-19T01:02:33;6.03;;;2.10;;
69754;SDS011;57023;52.218;5.158;2023-01-19T01:04:58;3.92;;;1.90;;
69754;SDS011;57023;52.218;5.158;2023-01-19T01:07:26;7.70;;;2.78;;
69754;SDS011;57023;52.218;5.158;2023-01-19T01:09:53;3.72;;;1.65;;
69754;SDS011;57023;52.218;5.158;2023-01-19T01:12:18;3.97;;;1.70;;
69754;SDS011;57023;52.218;5.158;2023-01-19T01:14:44;3.95;;;1.80;;
69754;SDS011;57023;52.218;5.158;2023-01-19T01:17:09;3.33;;;1.70;;
69754;SDS011;57023;52.218;5.158;2023-01-19T01:19:39;5.25;;;1.63;;
69754;SDS011;57023;52.218;5.158;2023-01-19T01:22:05;4.53;;;1.90;;
69754;SDS011;57023;52.218;5.158;2023-01-19T01:24:30;6.55;;;1.90;;
69754;SDS011;57023;52.218;5.158;2023-01-19T01:26:56;4.32;;;1.50;;
69754;SDS011;57023;52.218;5.158;2023-01-19T01:29:22;5.00;;;1.67;;
69754;SDS011;57023;52.218;5.158;2023-01-19T01:31:47;9.63;;;2.00;;
69754;SDS011;57023;52.218;5.158;2023-01-19T01:34:12;4.22;;;1.73;;
69754;SDS011;57023;52.218;5.158;2023-01-19T01:36:38;5.07;;;2.10;;
69754;SDS011;57023;52.218;5.158;2023-01-19T01:39:03;3.53;;;1.73;;
69754;SDS011;57023;52.218;5.158;2023-01-19T01:41:28;5.45;;;1.88;;
69754;SDS011;57023;52.218;5.158;2023-01-19T01:43:55;5.20;;;2.10;;
69754;SDS011;57023;52.218;5.158;2023-01-19T01:46:26;8.15;;;1.80;;
69754;SDS011;57023;52.218;5.158;2023-01-19T01:51:41;8.65;;;2.30;;
69754;SDS011;57023;52.218;5.158;2023-01-19T01:54:20;9.38;;;2.50;;
69754;SDS011;57023;52.218;5.158;2023-01-19T01:56:49;9.93;;;2.65;;
69754;SDS011;57023;52.218;5.158;2023-01-19T01:59:25;10.43;;;2.35;;
69754;SDS011;57023;52.218;5.158;2023-01-19T02:01:57;13.55;;;2.80;;
69754;SDS011;57023;52.218;5.158;2023-01-19T02:04:57;7.65;;;2.08;;
69754;SDS011;57023;52.218;5.158;2023-01-19T02:07:36;6.53;;;2.20;;
69754;SDS011;57023;52.218;5.158;2023-01-19T02:10:41;9.55;;;2.00;;
69754;SDS011;57023;52.218;5.158;2023-01-19T02:13:26;4.43;;;1.75;;
69754;SDS011;57023;52.218;5.158;2023-01-19T02:15:54;11.23;;;2.90;;
69754;SDS011;57023;52.218;5.158;2023-01-19T02:18:22;5.65;;;2.20;;
69754;SDS011;57023;52.218;5.158;2023-01-19T02:20:55;5.63;;;1.92;;
69754;SDS011;57023;52.218;5.158;2023-01-19T02:23:35;6.50;;;2.05;;
69754;SDS011;57023;52.218;5.158;2023-01-19T02:26:03;5.93;;;2.03;;
69754;SDS011;57023;52.218;5.158;2023-01-19T02:28:29;5.93;;;2.20;;
69754;SDS011;57023;52.218;5.158;2023-01-19T02:30:55;9.90;;;2.03;;
69754;SDS011;57023;52.218;5.158;2023-01-19T02:33:20;7.95;;;1.92;;
69754;SDS011;57023;52.218;5.158;2023-01-19T02:35:45;5.68;;;2.03;;
69754;SDS011;57023;52.218;5.158;2023-01-19T02:38:11;6.28;;;1.80;;
69754;SDS011;57023;52.218;5.158;2023-01-19T02:40:37;4.03;;;1.70;;
69754;SDS011;57023;52.218;5.158;2023-01-19T02:43:04;6.20;;;2.20;;
69754;SDS011;57023;52.218;5.158;2023-01-19T02:45:30;8.18;;;2.38;;
69754;SDS011;57023;52.218;5.158;2023-01-19T02:47:55;5.15;;;1.90;;
69754;SDS011;57023;52.218;5.158;2023-01-19T02:53:19;6.15;;;1.80;;
69754;SDS011;57023;52.218;5.158;2023-01-19T02:55:47;4.20;;;1.55;;
69754;SDS011;57023;52.218;5.158;2023-01-19T02:58:19;5.25;;;1.63;;
69754;SDS011;57023;52.218;5.158;2023-01-19T03:04:14;6.57;;;1.80;;
69754;SDS011;57023;52.218;5.158;2023-01-19T03:12:13;10.18;;;2.72;;
69754;SDS011;57023;52.218;5.158;2023-01-19T03:14:47;7.53;;;2.05;;
69754;SDS011;57023;52.218;5.158;2023-01-19T03:17:14;5.00;;;1.60;;
69754;SDS011;57023;52.218;5.158;2023-01-19T03:19:41;4.07;;;1.90;;
69754;SDS011;57023;52.218;5.158;2023-01-19T03:22:15;6.35;;;1.75;;
69754;SDS011;57023;52.218;5.158;2023-01-19T03:24:49;4.75;;;1.70;;
69754;SDS011;57023;52.218;5.158;2023-01-19T03:27:28;5.78;;;1.73;;
69754;SDS011;57023;52.218;5.158;2023-01-19T03:29:57;5.00;;;1.50;;
69754;SDS011;57023;52.218;5.158;2023-01-19T03:32:26;4.72;;;1.60;;
69754;SDS011;57023;52.218;5.158;2023-01-19T03:34:54;3.55;;;1.80;;
69754;SDS011;57023;52.218;5.158;2023-01-19T03:37:21;6.22;;;1.55;;
69754;SDS011;57023;52.218;5.158;2023-01-19T03:39:46;11.10;;;2.00;;
69754;SDS011;57023;52.218;5.158;2023-01-19T03:42:13;5.50;;;2.30;;
69754;SDS011;57023;52.218;5.158;2023-01-19T03:44:39;11.32;;;2.40;;
69754;SDS011;57023;52.218;5.158;2023-01-19T03:47:07;7.75;;;2.17;;
69754;SDS011;57023;52.218;5.158;2023-01-19T03:49:34;13.02;;;2.30;;
69754;SDS011;57023;52.218;5.158;2023-01-19T03:52:00;3.63;;;1.88;;
69754;SDS011;57023;52.218;5.158;2023-01-19T03:54:26;7.70;;;2.70;;
69754;SDS011;57023;52.218;5.158;2023-01-19T03:56:52;6.65;;;1.90;;
69754;SDS011;57023;52.218;5.158;2023-01-19T03:59:18;4.43;;;1.85;;
69754;SDS011;57023;52.218;5.158;2023-01-19T04:01:44;5.63;;;2.20;;
69754;SDS011;57023;52.218;5.158;2023-01-19T04:04:09;2.40;;;1.50;;
69754;SDS011;57023;52.218;5.158;2023-01-19T04:06:35;11.25;;;2.08;;
69754;SDS011;57023;52.218;5.158;2023-01-19T04:09:00;2.75;;;1.40;;
69754;SDS011;57023;52.218;5.158;2023-01-19T04:11:25;3.95;;;1.50;;
69754;SDS011;57023;52.218;5.158;2023-01-19T04:13:51;3.60;;;1.60;;
69754;SDS011;57023;52.218;5.158;2023-01-19T04:16:16;5.70;;;1.58;;
69754;SDS011;57023;52.218;5.158;2023-01-19T04:18:44;4.18;;;1.85;;
69754;SDS011;57023;52.218;5.158;2023-01-19T04:21:09;6.65;;;1.90;;
69754;SDS011;57023;52.218;5.158;2023-01-19T04:23:35;4.22;;;1.63;;
69754;SDS011;57023;52.218;5.158;2023-01-19T04:26:02;6.65;;;1.60;;
69754;SDS011;57023;52.218;5.158;2023-01-19T04:28:29;8.00;;;1.88;;
69754;SDS011;57023;52.218;5.158;2023-01-19T04:30:54;4.38;;;1.58;;
69754;SDS011;57023;52.218;5.158;2023-01-19T04:33:20;4.75;;;1.17;;
69754;SDS011;57023;52.218;5.158;2023-01-19T04:35:46;1.55;;;1.38;;
69754;SDS011;57023;52.218;5.158;2023-01-19T04:38:12;7.75;;;1.98;;
69754;SDS011;57023;52.218;5.158;2023-01-19T04:40:38;11.05;;;1.90;;
69754;SDS011;57023;52.218;5.158;2023-01-19T04:43:03;8.82;;;2.20;;
69754;SDS011;57023;52.218;5.158;2023-01-19T04:45:28;12.93;;;2.50;;
69754;SDS011;57023;52.218;5.158;2023-01-19T04:47:54;9.43;;;2.20;;
69754;SDS011;57023;52.218;5.158;2023-01-19T04:50:19;6.00;;;2.13;;
69754;SDS011;57023;52.218;5.158;2023-01-19T04:52:44;6.75;;;2.20;;
69754;SDS011;57023;52.218;5.158;2023-01-19T04:55:10;15.43;;;2.55;;
69754;SDS011;57023;52.218;5.158;2023-01-19T04:57:35;8.40;;;2.10;;
69754;SDS011;57023;52.218;5.158;2023-01-19T05:00:01;8.95;;;2.55;;
69754;SDS011;57023;52.218;5.158;2023-01-19T05:02:28;8.13;;;2.25;;
69754;SDS011;57023;52.218;5.158;2023-01-19T05:04:53;11.48;;;3.50;;
69754;SDS011;57023;52.218;5.158;2023-01-19T05:07:18;10.07;;;2.40;;
69754;SDS011;57023;52.218;5.158;2023-01-19T05:09:44;12.27;;;2.63;;
69754;SDS011;57023;52.218;5.158;2023-01-19T05:12:09;11.23;;;2.42;;
69754;SDS011;57023;52.218;5.158;2023-01-19T05:14:35;12.32;;;3.10;;
69754;SDS011;57023;52.218;5.158;2023-01-19T05:17:01;14.93;;;2.65;;
69754;SDS011;57023;52.218;5.158;2023-01-19T05:19:27;7.90;;;2.13;;
69754;SDS011;57023;52.218;5.158;2023-01-19T05:21:52;12.35;;;3.38;;
69754;SDS011;57023;52.218;5.158;2023-01-19T05:24:18;18.92;;;3.35;;
69754;SDS011;57023;52.218;5.158;2023-01-19T05:26:44;15.65;;;3.00;;
69754;SDS011;57023;52.218;5.158;2023-01-19T05:29:09;9.82;;;2.45;;
69754;SDS011;57023;52.218;5.158;2023-01-19T05:31:34;16.08;;;2.83;;
69754;SDS011;57023;52.218;5.158;2023-01-19T05:34:01;11.00;;;2.75;;
69754;SDS011;57023;52.218;5.158;2023-01-19T05:36:26;19.67;;;3.15;;
69754;SDS011;57023;52.218;5.158;2023-01-19T05:38:51;11.95;;;2.60;;
69754;SDS011;57023;52.218;5.158;2023-01-19T05:41:17;16.08;;;3.13;;
69754;SDS011;57023;52.218;5.158;2023-01-19T05:43:42;12.23;;;2.47;;
69754;SDS011;57023;52.218;5.158;2023-01-19T05:46:07;12.45;;;2.38;;
69754;SDS011;57023;52.218;5.158;2023-01-19T05:48:33;10.63;;;2.63;;
69754;SDS011;57023;52.218;5.158;2023-01-19T05:50:58;12.52;;;2.70;;
69754;SDS011;57023;52.218;5.158;2023-01-19T05:53:24;12.90;;;3.03;;
69754;SDS011;57023;52.218;5.158;2023-01-19T05:55:49;13.90;;;2.67;;
69754;SDS011;57023;52.218;5.158;2023-01-19T05:58:15;9.50;;;2.53;;
69754;SDS011;57023;52.218;5.158;2023-01-19T06:00:40;12.50;;;2.47;;
69754;SDS011;57023;52.218;5.158;2023-01-19T06:03:06;12.38;;;3.40;;
69754;SDS011;57023;52.218;5.158;2023-01-19T06:05:31;16.73;;;5.50;;
69754;SDS011;57023;52.218;5.158;2023-01-19T06:07:56;12.82;;;2.83;;
69754;SDS011;57023;52.218;5.158;2023-01-19T06:10:22;19.95;;;2.90;;
69754;SDS011;57023;52.218;5.158;2023-01-19T06:12:47;17.52;;;3.38;;
69754;SDS011;57023;52.218;5.158;2023-01-19T06:15:13;12.35;;;2.55;;
69754;SDS011;57023;52.218;5.158;2023-01-19T06:17:39;13.98;;;3.40;;
69754;SDS011;57023;52.218;5.158;2023-01-19T06:20:04;18.67;;;3.63;;
69754;SDS011;57023;52.218;5.158;2023-01-19T06:22:30;18.73;;;3.55;;
69754;SDS011;57023;52.218;5.158;2023-01-19T06:24:56;13.98;;;2.88;;
69754;SDS011;57023;52.218;5.158;2023-01-19T06:27:21;18.60;;;3.13;;
69754;SDS011;57023;52.218;5.158;2023-01-19T06:29:47;14.02;;;3.13;;
69754;SDS011;57023;52.218;5.158;2023-01-19T06:32:12;16.52;;;3.22;;
69754;SDS011;57023;52.218;5.158;2023-01-19T06:34:37;19.85;;;3.33;;
69754;SDS011;57023;52.218;5.158;2023-01-19T06:37:07;21.83;;;3.85;;
69754;SDS011;57023;52.218;5.158;2023-01-19T06:39:32;9.85;;;3.40;;
69754;SDS011;57023;52.218;5.158;2023-01-19T06:41:58;15.77;;;2.90;;
69754;SDS011;57023;52.218;5.158;2023-01-19T06:44:23;19.65;;;4.30;;
69754;SDS011;57023;52.218;5.158;2023-01-19T06:46:49;16.10;;;3.00;;
69754;SDS011;57023;52.218;5.158;2023-01-19T06:49:15;11.65;;;3.13;;
69754;SDS011;57023;52.218;5.158;2023-01-19T06:51:40;17.70;;;3.35;;
69754;SDS011;57023;52.218;5.158;2023-01-19T06:54:05;16.13;;;3.05;;
69754;SDS011;57023;52.218;5.158;2023-01-19T06:56:31;19.55;;;3.45;;
69754;SDS011;57023;52.218;5.158;2023-01-19T06:58:56;18.67;;;3.33;;
69754;SDS011;57023;52.218;5.158;2023-01-19T07:01:22;14.07;;;4.00;;
69754;SDS011;57023;52.218;5.158;2023-01-19T07:03:47;11.65;;;3.75;;
69754;SDS011;57023;52.218;5.158;2023-01-19T07:06:12;14.07;;;3.83;;
69754;SDS011;57023;52.218;5.158;2023-01-19T07:08:38;12.65;;;3.00;;
69754;SDS011;57023;52.218;5.158;2023-01-19T07:11:07;15.32;;;3.35;;
69754;SDS011;57023;52.218;5.158;2023-01-19T07:13:34;19.05;;;3.40;;
69754;SDS011;57023;52.218;5.158;2023-01-19T07:16:03;18.77;;;3.83;;
69754;SDS011;57023;52.218;5.158;2023-01-19T07:18:30;26.30;;;3.80;;
69754;SDS011;57023;52.218;5.158;2023-01-19T07:20:56;16.48;;;3.50;;
69754;SDS011;57023;52.218;5.158;2023-01-19T07:23:22;16.80;;;3.50;;
69754;SDS011;57023;52.218;5.158;2023-01-19T07:25:47;15.82;;;3.53;;
69754;SDS011;57023;52.218;5.158;2023-01-19T07:28:12;17.88;;;3.60;;
69754;SDS011;57023;52.218;5.158;2023-01-19T07:30:40;14.50;;;2.90;;
69754;SDS011;57023;52.218;5.158;2023-01-19T07:33:09;13.38;;;4.38;;
69754;SDS011;57023;52.218;5.158;2023-01-19T07:35:35;14.23;;;3.40;;
69754;SDS011;57023;52.218;5.158;2023-01-19T07:38:00;17.80;;;3.30;;
69754;SDS011;57023;52.218;5.158;2023-01-19T07:40:26;16.50;;;3.65;;
69754;SDS011;57023;52.218;5.158;2023-01-19T07:42:51;16.50;;;3.30;;
69754;SDS011;57023;52.218;5.158;2023-01-19T07:45:17;13.50;;;3.05;;
69754;SDS011;57023;52.218;5.158;2023-01-19T07:47:44;11.63;;;3.13;;
69754;SDS011;57023;52.218;5.158;2023-01-19T07:50:12;15.18;;;3.00;;
69754;SDS011;57023;52.218;5.158;2023-01-19T07:52:38;18.42;;;3.00;;
69754;SDS011;57023;52.218;5.158;2023-01-19T07:55:04;11.38;;;3.25;;
69754;SDS011;57023;52.218;5.158;2023-01-19T07:57:29;11.25;;;3.13;;
69754;SDS011;57023;52.218;5.158;2023-01-19T07:59:55;17.55;;;3.42;;
69754;SDS011;57023;52.218;5.158;2023-01-19T08:02:20;14.45;;;4.25;;
69754;SDS011;57023;52.218;5.158;2023-01-19T08:04:48;18.88;;;3.92;;
69754;SDS011;57023;52.218;5.158;2023-01-19T08:07:14;22.02;;;4.20;;
69754;SDS011;57023;52.218;5.158;2023-01-19T08:09:39;18.88;;;3.85;;
69754;SDS011;57023;52.218;5.158;2023-01-19T08:12:05;17.55;;;4.22;;
69754;SDS011;57023;52.218;5.158;2023-01-19T08:14:30;25.33;;;4.78;;
69754;SDS011;57023;52.218;5.158;2023-01-19T08:17:01;16.63;;;3.67;;
69754;SDS011;57023;52.218;5.158;2023-01-19T08:19:28;13.82;;;3.63;;
69754;SDS011;57023;52.218;5.158;2023-01-19T08:21:53;12.73;;;3.88;;
69754;SDS011;57023;52.218;5.158;2023-01-19T08:24:20;20.13;;;4.80;;
69754;SDS011;57023;52.218;5.158;2023-01-19T08:26:47;22.02;;;3.75;;
69754;SDS011;57023;52.218;5.158;2023-01-19T08:29:13;15.95;;;3.95;;
69754;SDS011;57023;52.218;5.158;2023-01-19T08:31:39;13.65;;;3.33;;
69754;SDS011;57023;52.218;5.158;2023-01-19T08:34:04;21.35;;;4.10;;
69754;SDS011;57023;52.218;5.158;2023-01-19T08:36:30;19.95;;;3.80;;
69754;SDS011;57023;52.218;5.158;2023-01-19T08:38:55;11.85;;;3.00;;
69754;SDS011;57023;52.218;5.158;2023-01-19T08:41:20;13.38;;;3.25;;
69754;SDS011;57023;52.218;5.158;2023-01-19T08:43:46;12.13;;;2.83;;
69754;SDS011;57023;52.218;5.158;2023-01-19T08:46:12;13.68;;;2.95;;
69754;SDS011;57023;52.218;5.158;2023-01-19T08:48:41;12.88;;;3.22;;
69754;SDS011;57023;52.218;5.158;2023-01-19T08:51:07;13.05;;;2.92;;
69754;SDS011;57023;52.218;5.158;2023-01-19T08:53:33;10.35;;;2.60;;
69754;SDS011;57023;52.218;5.158;2023-01-19T08:55:58;11.95;;;3.17;;
69754;SDS011;57023;52.218;5.158;2023-01-19T08:58:25;11.75;;;2.65;;
69754;SDS011;57023;52.218;5.158;2023-01-19T09:00:50;12.68;;;3.15;;
69754;SDS011;57023;52.218;5.158;2023-01-19T09:03:16;13.60;;;2.90;;
69754;SDS011;57023;52.218;5.158;2023-01-19T09:05:42;11.88;;;3.40;;
69754;SDS011;57023;52.218;5.158;2023-01-19T09:08:12;8.05;;;2.58;;
69754;SDS011;57023;52.218;5.158;2023-01-19T09:10:38;8.68;;;3.05;;
69754;SDS011;57023;52.218;5.158;2023-01-19T09:13:09;11.48;;;2.90;;
69754;SDS011;57023;52.218;5.158;2023-01-19T09:15:38;14.23;;;2.80;;
69754;SDS011;57023;52.218;5.158;2023-01-19T09:18:05;16.38;;;3.25;;
69754;SDS011;57023;52.218;5.158;2023-01-19T09:20:31;12.10;;;2.95;;
69754;SDS011;57023;52.218;5.158;2023-01-19T09:22:58;8.88;;;2.90;;
69754;SDS011;57023;52.218;5.158;2023-01-19T09:25:24;9.55;;;2.67;;
69754;SDS011;57023;52.218;5.158;2023-01-19T09:27:49;12.68;;;2.63;;
69754;SDS011;57023;52.218;5.158;2023-01-19T09:30:15;8.80;;;2.67;;
69754;SDS011;57023;52.218;5.158;2023-01-19T09:32:41;12.85;;;3.00;;
69754;SDS011;57023;52.218;5.158;2023-01-19T09:35:07;11.00;;;3.10;;
69754;SDS011;57023;52.218;5.158;2023-01-19T09:37:32;12.18;;;2.60;;
69754;SDS011;57023;52.218;5.158;2023-01-19T09:39:58;15.27;;;3.30;;
69754;SDS011;57023;52.218;5.158;2023-01-19T09:42:30;8.60;;;2.58;;
69754;SDS011;57023;52.218;5.158;2023-01-19T09:44:59;9.73;;;3.50;;
69754;SDS011;57023;52.218;5.158;2023-01-19T09:47:25;10.85;;;3.22;;
69754;SDS011;57023;52.218;5.158;2023-01-19T09:49:53;11.27;;;2.90;;
69754;SDS011;57023;52.218;5.158;2023-01-19T09:52:22;7.32;;;3.03;;
69754;SDS011;57023;52.218;5.158;2023-01-19T09:54:55;13.65;;;2.92;;
69754;SDS011;57023;52.218;5.158;2023-01-19T09:57:24;11.65;;;3.17;;
69754;SDS011;57023;52.218;5.158;2023-01-19T09:59:51;11.70;;;2.95;;
69754;SDS011;57023;52.218;5.158;2023-01-19T10:10:41;9.55;;;2.40;;
69754;SDS011;57023;52.218;5.158;2023-01-19T10:18:34;9.05;;;3.10;;
69754;SDS011;57023;52.218;5.158;2023-01-19T10:21:11;16.33;;;3.20;;
69754;SDS011;57023;52.218;5.158;2023-01-19T10:23:45;12.23;;;2.53;;
69754;SDS011;57023;52.218;5.158;2023-01-19T10:26:15;7.68;;;2.70;;
69754;SDS011;57023;52.218;5.158;2023-01-19T10:31:07;7.72;;;2.30;;
69754;SDS011;57023;52.218;5.158;2023-01-19T10:33:34;6.70;;;2.10;;
69754;SDS011;57023;52.218;5.158;2023-01-19T10:36:14;7.90;;;2.70;;
69754;SDS011;57023;52.218;5.158;2023-01-19T10:38:41;8.90;;;2.10;;
69754;SDS011;57023;52.218;5.158;2023-01-19T10:41:09;9.95;;;2.55;;
69754;SDS011;57023;52.218;5.158;2023-01-19T10:43:38;8.98;;;2.30;;
69754;SDS011;57023;52.218;5.158;2023-01-19T10:49:21;7.57;;;2.10;;
69754;SDS011;57023;52.218;5.158;2023-01-19T10:51:48;9.07;;;2.25;;
69754;SDS011;57023;52.218;5.158;2023-01-19T10:54:13;8.23;;;2.10;;
69754;SDS011;57023;52.218;5.158;2023-01-19T10:56:39;10.30;;;2.40;;
69754;SDS011;57023;52.218;5.158;2023-01-19T10:59:25;5.50;;;2.20;;
69754;SDS011;57023;52.218;5.158;2023-01-19T11:02:14;6.85;;;2.45;;
69754;SDS011;57023;52.218;5.158;2023-01-19T11:04:50;10.75;;;2.80;;
69754;SDS011;57023;52.218;5.158;2023-01-19T11:09:45;8.10;;;2.30;;
69754;SDS011;57023;52.218;5.158;2023-01-19T11:12:18;7.50;;;1.80;;
69754;SDS011;57023;52.218;5.158;2023-01-19T11:14:45;6.80;;;2.33;;
69754;SDS011;57023;52.218;5.158;2023-01-19T11:17:18;12.55;;;2.15;;
69754;SDS011;57023;52.218;5.158;2023-01-19T11:20:16;6.05;;;2.28;;
69754;SDS011;57023;52.218;5.158;2023-01-19T11:22:47;11.93;;;2.33;;
69754;SDS011;57023;52.218;5.158;2023-01-19T11:25:20;6.88;;;1.85;;
69754;SDS011;57023;52.218;5.158;2023-01-19T11:27:49;7.32;;;2.05;;
69754;SDS011;57023;52.218;5.158;2023-01-19T11:30:17;4.47;;;2.05;;
69754;SDS011;57023;52.218;5.158;2023-01-19T11:32:44;8.05;;;2.47;;
69754;SDS011;57023;52.218;5.158;2023-01-19T11:35:30;8.73;;;2.30;;
69754;SDS011;57023;52.218;5.158;2023-01-19T11:40:37;8.27;;;3.13;;
69754;SDS011;57023;52.218;5.158;2023-01-19T11:43:03;6.03;;;1.92;;
69754;SDS011;57023;52.218;5.158;2023-01-19T11:45:29;6.95;;;2.30;;
69754;SDS011;57023;52.218;5.158;2023-01-19T11:50:23;12.27;;;2.20;;
69754;SDS011;57023;52.218;5.158;2023-01-19T11:53:15;8.20;;;2.33;;
69754;SDS011;57023;52.218;5.158;2023-01-19T11:55:52;7.38;;;2.10;;
69754;SDS011;57023;52.218;5.158;2023-01-19T11:58:20;6.13;;;2.20;;
69754;SDS011;57023;52.218;5.158;2023-01-19T12:03:29;8.20;;;2.10;;
69754;SDS011;57023;52.218;5.158;2023-01-19T12:06:06;7.78;;;2.60;;
69754;SDS011;57023;52.218;5.158;2023-01-19T12:11:07;5.45;;;2.10;;
69754;SDS011;57023;52.218;5.158;2023-01-19T12:13:34;9.65;;;2.65;;
69754;SDS011;57023;52.218;5.158;2023-01-19T12:16:04;7.35;;;2.30;;
69754;SDS011;57023;52.218;5.158;2023-01-19T12:18:35;10.02;;;2.20;;
69754;SDS011;57023;52.218;5.158;2023-01-19T12:21:05;7.15;;;2.17;;
69754;SDS011;57023;52.218;5.158;2023-01-19T12:29:14;9.30;;;2.20;;
69754;SDS011;57023;52.218;5.158;2023-01-19T12:31:41;9.05;;;2.50;;
69754;SDS011;57023;52.218;5.158;2023-01-19T12:36:51;7.60;;;2.60;;
69754;SDS011;57023;52.218;5.158;2023-01-19T12:39:18;6.18;;;2.17;;
69754;SDS011;57023;52.218;5.158;2023-01-19T12:41:44;8.73;;;2.90;;
69754;SDS011;57023;52.218;5.158;2023-01-19T12:46:42;6.10;;;2.30;;
69754;SDS011;57023;52.218;5.158;2023-01-19T12:55:02;6.43;;;2.33;;
69754;SDS011;57023;52.218;5.158;2023-01-19T13:02:55;3.97;;;2.10;;
69754;SDS011;57023;52.218;5.158;2023-01-19T13:08:20;5.97;;;2.20;;
69754;SDS011;57023;52.218;5.158;2023-01-19T13:16:42;5.80;;;2.10;;
69754;SDS011;57023;52.218;5.158;2023-01-19T13:21:11;5.03;;;2.30;;
69754;SDS011;57023;52.218;5.158;2023-01-19T13:28:42;5.43;;;2.30;;
69754;SDS011;57023;52.218;5.158;2023-01-19T13:33:36;8.68;;;2.55;;
69754;SDS011;57023;52.218;5.158;2023-01-19T13:36:15;9.38;;;2.67;;
69754;SDS011;57023;52.218;5.158;2023-01-19T13:38:44;5.68;;;2.20;;
69754;SDS011;57023;52.218;5.158;2023-01-19T13:41:14;6.53;;;2.00;;
69754;SDS011;57023;52.218;5.158;2023-01-19T13:43:40;5.53;;;2.22;;
69754;SDS011;57023;52.218;5.158;2023-01-19T13:46:08;6.53;;;2.20;;
69754;SDS011;57023;52.218;5.158;2023-01-19T13:48:37;5.18;;;2.50;;
69754;SDS011;57023;52.218;5.158;2023-01-19T13:51:10;4.28;;;2.40;;
69754;SDS011;57023;52.218;5.158;2023-01-19T13:53:51;6.97;;;2.20;;
69754;SDS011;57023;52.218;5.158;2023-01-19T13:56:19;8.30;;;2.60;;
69754;SDS011;57023;52.218;5.158;2023-01-19T13:58:58;5.93;;;2.78;;
69754;SDS011;57023;52.218;5.158;2023-01-19T14:01:33;6.13;;;2.28;;
69754;SDS011;57023;52.218;5.158;2023-01-19T14:03:59;4.43;;;2.40;;
69754;SDS011;57023;52.218;5.158;2023-01-19T14:06:30;7.05;;;2.30;;
69754;SDS011;57023;52.218;5.158;2023-01-19T14:11:40;5.68;;;2.15;;
69754;SDS011;57023;52.218;5.158;2023-01-19T14:14:20;6.00;;;2.20;;
69754;SDS011;57023;52.218;5.158;2023-01-19T14:16:54;5.50;;;2.00;;
69754;SDS011;57023;52.218;5.158;2023-01-19T14:19:19;6.13;;;2.10;;
69754;SDS011;57023;52.218;5.158;2023-01-19T14:21:45;9.45;;;2.30;;
69754;SDS011;57023;52.218;5.158;2023-01-19T14:24:21;5.00;;;2.13;;
69754;SDS011;57023;52.218;5.158;2023-01-19T14:26:48;7.57;;;2.50;;
69754;SDS011;57023;52.218;5.158;2023-01-19T14:29:28;5.93;;;2.53;;
69754;SDS011;57023;52.218;5.158;2023-01-19T14:34:44;7.43;;;2.42;;
69754;SDS011;57023;52.218;5.158;2023-01-19T14:37:20;5.82;;;2.35;;
69754;SDS011;57023;52.218;5.158;2023-01-19T14:50:46;4.88;;;2.13;;
69754;SDS011;57023;52.218;5.158;2023-01-19T14:53:18;5.53;;;2.40;;
69754;SDS011;57023;52.218;5.158;2023-01-19T14:55:57;6.75;;;2.42;;
69754;SDS011;57023;52.218;5.158;2023-01-19T14:58:24;7.37;;;2.50;;
69754;SDS011;57023;52.218;5.158;2023-01-19T15:00:50;8.60;;;2.40;;
69754;SDS011;57023;52.218;5.158;2023-01-19T15:03:19;7.45;;;2.30;;
69754;SDS011;57023;52.218;5.158;2023-01-19T15:05:45;7.43;;;3.35;;
69754;SDS011;57023;52.218;5.158;2023-01-19T15:08:11;7.47;;;2.60;;
69754;SDS011;57023;52.218;5.158;2023-01-19T15:10:39;6.70;;;2.28;;
69754;SDS011;57023;52.218;5.158;2023-01-19T15:13:05;8.07;;;2.45;;
69754;SDS011;57023;52.218;5.158;2023-01-19T15:15:31;7.15;;;2.40;;
69754;SDS011;57023;52.218;5.158;2023-01-19T15:17:58;6.95;;;2.67;;
69754;SDS011;57023;52.218;5.158;2023-01-19T15:20:28;10.40;;;2.67;;
69754;SDS011;57023;52.218;5.158;2023-01-19T15:22:53;6.57;;;2.90;;
69754;SDS011;57023;52.218;5.158;2023-01-19T15:25:19;4.93;;;2.70;;
69754;SDS011;57023;52.218;5.158;2023-01-19T15:30:16;8.88;;;2.92;;
69754;SDS011;57023;52.218;5.158;2023-01-19T15:32:42;7.05;;;2.60;;
69754;SDS011;57023;52.218;5.158;2023-01-19T15:35:18;7.78;;;2.75;;
69754;SDS011;57023;52.218;5.158;2023-01-19T15:37:44;5.88;;;2.45;;
69754;SDS011;57023;52.218;5.158;2023-01-19T15:40:10;5.75;;;2.38;;
69754;SDS011;57023;52.218;5.158;2023-01-19T15:42:36;8.10;;;2.45;;
69754;SDS011;57023;52.218;5.158;2023-01-19T15:45:02;6.43;;;2.53;;
69754;SDS011;57023;52.218;5.158;2023-01-19T15:48:10;5.82;;;2.50;;
69754;SDS011;57023;52.218;5.158;2023-01-19T15:50:40;5.20;;;2.70;;
69754;SDS011;57023;52.218;5.158;2023-01-19T15:53:06;6.97;;;2.67;;
69754;SDS011;57023;52.218;5.158;2023-01-19T15:55:37;9.65;;;3.42;;
69754;SDS011;57023;52.218;5.158;2023-01-19T15:58:02;6.82;;;3.30;;
69754;SDS011;57023;52.218;5.158;2023-01-19T16:00:28;9.90;;;2.90;;
69754;SDS011;57023;52.218;5.158;2023-01-19T16:02:54;7.13;;;3.20;;
69754;SDS011;57023;52.218;5.158;2023-01-19T16:05:20;8.73;;;2.85;;
69754;SDS011;57023;52.218;5.158;2023-01-19T16:07:45;10.25;;;2.97;;
69754;SDS011;57023;52.218;5.158;2023-01-19T16:10:11;6.75;;;2.60;;
69754;SDS011;57023;52.218;5.158;2023-01-19T16:12:37;9.77;;;2.70;;
69754;SDS011;57023;52.218;5.158;2023-01-19T16:15:03;6.40;;;2.97;;
69754;SDS011;57023;52.218;5.158;2023-01-19T16:17:29;7.50;;;2.90;;
69754;SDS011;57023;52.218;5.158;2023-01-19T16:19:54;8.27;;;2.92;;
69754;SDS011;57023;52.218;5.158;2023-01-19T16:22:19;7.28;;;3.00;;
69754;SDS011;57023;52.218;5.158;2023-01-19T16:24:45;8.27;;;2.83;;
69754;SDS011;57023;52.218;5.158;2023-01-19T16:27:10;11.65;;;3.97;;
69754;SDS011;57023;52.218;5.158;2023-01-19T16:29:35;11.80;;;4.03;;
69754;SDS011;57023;52.218;5.158;2023-01-19T16:32:01;8.07;;;3.72;;
69754;SDS011;57023;52.218;5.158;2023-01-19T16:34:26;8.68;;;2.95;;